עמוד ראשי
METAR-TAF:

שדות תעופה :

סלוניקי, יוון

נמל התעופה הבינלאומי סלוניקי מקדוניה

קו רוחב: 40-31N, קו אורך: 022-58E, גובה: 8מטר

תצפית מזג אוויר נוכחית

הדו"ח נערך לפני 37דקות, בשעה 07:20 UTC
רוח 6קשר מכיוון מערב
טמפרטורת 27 צלסיוס
לחות 62%
לחץ 1016 hPa
ראות 10 קילומטר או יותר
מעט עננים בגובה 3000רגל

METAR: LGTS 010720Z 28006KT 9999 FEW030 27/19 Q1016 NOSIG

זמן: 10:57 (07:57 UTC)

תחזית

הדו"ח נערך לפני 2 שעות ו 57דקות, בשעה 05:00 UTC
תחזית בתוקף מ 01 ב 06 UTC עד 02 ב 06 UTC
רוח 8קשר מכיוון מערב/צפון-מערב
ראות 10 קילומטר או יותר
ללא עננים שבסיסם נמוך מ 5000 רגל או קומולונימבוס
יעשה מ
01 ב 11 UTC עד 01 ב 13 UTC
רוח 12קשר מכיוון דרום
הסתברות 30% :
זמנית מ -
01 ב 12 UTC עד 01 ב 18 UTC
ראות: 7000מטר
מעט עננים בגובה 2000רגל , קומולונימבוס.
עננים פזורים בגובה 3000רגל
ממטרי גשם
יעשה מ
01 ב 18 UTC עד 01 ב 20 UTC
רוח 3קשר עם כיוונים משתנים

TAF: LGTS 010500Z 0106/0206 30008KT CAVOK BECMG 0111/0113 19012KT PROB30 TEMPO 0112/0118 7000 SHRA FEW020CB SCT030 BECMG 0118/0120 VRB03KT

METAR-TAF

תצפיות ותחזיות מזג אוויר לגבי יותר מ- 4,000 שדות תעופה ברחבי העולם. דוחות METAR ו- TAF.

התחנות הזמינות מסומנות בנקודות צהובות ואדומות על גבי המפה.

העבר את העכבר לנקודה הצבעונית על מנת לראות את שם התחנה.

לאחר מכן, לחץ כדי לראות את תוכן ואת תחזיות מזג האוויר.

כדי לשנות את המפה: לחץ על הכפתורים הירוקים עם הפלוס השחור כדי להתקרב; על הכפתור הירוק עם המקף כדי להתרחק; או בחיצים הירוקים למפות סמוכות.


METAR-TAF: